< < Back
Terminal Aerodrome Forecast


Current Version              Previous Versions:   1  2  3  4  5  6  7  8  9  

Terminal Aerodrome Forecast

223
FTUS42 KCHS 301400 AAA
TAFCHS
TAF AMD
KCHS 301432Z 3015/0112 02008KT P6SM SKC
     FM301900 03007KT P6SM SCT040
     FM010000 VRB03KT P6SM SKC
     FM010900 00000KT 5SM BR SKC=



Latest METAR

764
SAUS80 KWBC 010600 RRJ
MTRCHS
METAR KCHS 010556Z 00000KT 10SM CLR 19/17 A2990 RMK AO2 SLP125 T01940172
10233 20194 55001


USA.gov is the U.S. government's official web portal to all federal, state and local government web resources and services.